createdAt,value
2018-12-05T00:01:44.703Z,4.20
2018-12-05T00:04:12.139Z,4.20
2018-12-05T00:06:39.585Z,4.10
2018-12-05T00:09:07.270Z,4.10
2018-12-05T00:11:34.722Z,4.10
2018-12-05T00:14:02.308Z,4.20
2018-12-05T00:16:29.737Z,4.10
2018-12-05T00:18:57.191Z,4.10
2018-12-05T00:21:24.628Z,4.00
2018-12-05T00:23:52.296Z,4.00
2018-12-05T00:26:20.656Z,4.00
2018-12-05T00:28:48.102Z,4.00
2018-12-05T00:31:15.551Z,4.00
2018-12-05T00:33:43.072Z,4.10
2018-12-05T00:36:10.699Z,4.00
2018-12-05T00:38:38.150Z,4.10
2018-12-05T00:41:06.107Z,4.10
2018-12-05T00:43:33.560Z,4.10
2018-12-05T00:46:00.998Z,4.20
2018-12-05T00:48:28.444Z,4.20
2018-12-05T00:50:56.696Z,4.20
2018-12-05T00:53:24.150Z,4.30
2018-12-05T00:55:51.924Z,4.20
2018-12-05T00:58:19.401Z,4.30
2018-12-05T01:00:46.895Z,4.30
2018-12-05T01:03:14.430Z,4.30
2018-12-05T01:05:41.901Z,4.40
2018-12-05T01:08:09.355Z,4.40
2018-12-05T01:10:37.634Z,4.30
2018-12-05T01:13:05.106Z,4.30
2018-12-05T01:15:32.536Z,4.30
2018-12-05T01:17:59.974Z,4.40
2018-12-05T01:20:27.401Z,4.40
2018-12-05T01:22:54.842Z,4.30
2018-12-05T01:25:22.308Z,4.40
2018-12-05T01:27:49.774Z,4.40
2018-12-05T01:30:17.228Z,4.30
2018-12-05T01:32:44.667Z,4.30
2018-12-05T01:35:12.188Z,4.20
2018-12-05T01:37:39.643Z,4.20
2018-12-05T01:40:07.207Z,4.30
2018-12-05T01:42:34.663Z,4.30
2018-12-05T01:45:02.213Z,4.30
2018-12-05T01:47:29.684Z,4.30
2018-12-05T01:49:57.150Z,4.30
2018-12-05T01:52:24.603Z,4.20
2018-12-05T01:54:52.134Z,4.20
2018-12-05T01:57:19.575Z,4.10
2018-12-05T01:59:47.008Z,4.00
2018-12-05T02:02:14.476Z,4.00
2018-12-05T02:04:41.937Z,4.00
2018-12-05T02:07:09.454Z,4.10
2018-12-05T02:09:36.913Z,4.20
2018-12-05T02:12:04.392Z,4.10
2018-12-05T02:14:31.943Z,4.10
2018-12-05T02:16:59.389Z,4.20
2018-12-05T02:19:26.856Z,4.20
2018-12-05T02:21:54.328Z,4.20
2018-12-05T02:24:21.760Z,4.10
2018-12-05T02:26:49.407Z,4.10
2018-12-05T02:29:16.830Z,4.10
2018-12-05T02:31:44.296Z,4.10
2018-12-05T02:34:11.915Z,4.00
2018-12-05T02:36:39.376Z,4.00
2018-12-05T02:39:07.876Z,4.00
2018-12-05T02:41:35.327Z,3.90
2018-12-05T02:44:02.876Z,3.80
2018-12-05T02:46:30.350Z,3.80
2018-12-05T02:48:57.906Z,3.70
2018-12-05T02:51:25.350Z,3.60
2018-12-05T02:53:52.906Z,3.50
2018-12-05T02:56:20.349Z,3.50
2018-12-05T02:58:47.865Z,3.40
2018-12-05T03:01:15.320Z,3.40
2018-12-05T03:03:42.822Z,3.30
2018-12-05T03:06:10.329Z,3.30
2018-12-05T03:08:37.819Z,3.30
2018-12-05T03:11:05.308Z,3.30
2018-12-05T03:13:32.792Z,3.40
2018-12-05T03:16:00.254Z,3.20
2018-12-05T03:18:27.698Z,3.00
2018-12-05T03:20:55.131Z,2.90
2018-12-05T03:23:22.614Z,2.90
2018-12-05T03:25:50.070Z,2.80
2018-12-05T03:28:17.516Z,2.80
2018-12-05T03:30:44.977Z,2.70
2018-12-05T03:33:12.428Z,2.70
2018-12-05T03:35:39.958Z,2.60
2018-12-05T03:38:07.619Z,2.70
2018-12-05T03:40:35.090Z,2.70
2018-12-05T03:43:02.559Z,2.70
2018-12-05T03:45:31.702Z,2.70
2018-12-05T03:47:59.366Z,2.70
2018-12-05T03:50:26.924Z,2.80
2018-12-05T03:52:54.414Z,3.00
2018-12-05T03:55:21.868Z,3.00
2018-12-05T03:57:49.395Z,3.10
2018-12-05T04:00:16.812Z,3.10
2018-12-05T04:02:45.006Z,3.20
2018-12-05T04:05:12.465Z,3.30
2018-12-05T04:07:39.907Z,3.30
2018-12-05T04:10:07.440Z,3.40
2018-12-05T04:12:40.453Z,3.50
2018-12-05T04:15:05.942Z,3.60
2018-12-05T04:17:33.529Z,3.60
2018-12-05T04:20:01.021Z,3.70
2018-12-05T04:22:28.445Z,3.80
2018-12-05T04:24:55.961Z,3.80
2018-12-05T04:27:25.218Z,3.80
2018-12-05T04:29:52.998Z,3.80
2018-12-05T04:32:20.460Z,3.90
2018-12-05T04:34:47.895Z,3.90
2018-12-05T04:37:15.425Z,3.90
2018-12-05T04:39:42.892Z,3.90
2018-12-05T04:42:10.401Z,3.90
2018-12-05T04:44:37.866Z,3.90
2018-12-05T04:47:05.385Z,3.80
2018-12-05T04:49:32.827Z,3.90
2018-12-05T04:52:00.277Z,4.00
2018-12-05T04:54:27.795Z,4.10
2018-12-05T04:56:55.363Z,4.10
2018-12-05T04:59:22.813Z,4.10
2018-12-05T05:01:50.289Z,4.00
2018-12-05T05:04:17.758Z,3.90
2018-12-05T05:06:45.196Z,3.90
2018-12-05T05:09:12.657Z,3.90
2018-12-05T05:11:40.217Z,4.00
2018-12-05T05:14:07.728Z,4.10
2018-12-05T05:16:35.178Z,4.00
2018-12-05T05:19:02.627Z,4.10
2018-12-05T05:21:30.102Z,3.90
2018-12-05T05:23:57.626Z,3.90
2018-12-05T05:26:25.160Z,3.90
2018-12-05T05:28:52.598Z,3.90
2018-12-05T05:31:20.298Z,3.90
2018-12-05T05:33:47.725Z,3.90
2018-12-05T05:36:15.212Z,4.00
2018-12-05T05:38:42.661Z,3.90
2018-12-05T05:41:10.089Z,3.90
2018-12-05T05:43:37.525Z,3.90
2018-12-05T05:46:05.055Z,4.40
2018-12-05T05:48:32.494Z,4.80
2018-12-05T05:51:00.042Z,4.90
2018-12-05T05:53:27.536Z,4.70
2018-12-05T05:55:54.982Z,4.50
2018-12-05T05:58:22.421Z,4.40
2018-12-05T06:00:49.868Z,4.30
2018-12-05T06:03:17.386Z,4.30
2018-12-05T06:05:44.821Z,4.30
2018-12-05T06:08:12.251Z,4.20
2018-12-05T06:10:39.721Z,4.20
2018-12-05T06:13:07.193Z,4.20
2018-12-05T06:15:34.641Z,4.20
2018-12-05T06:18:02.076Z,4.20
2018-12-05T06:20:29.532Z,4.20
2018-12-05T06:22:56.960Z,4.20
2018-12-05T06:25:24.397Z,4.20
2018-12-05T06:27:51.850Z,4.20
2018-12-05T06:30:19.314Z,4.30
2018-12-05T06:32:46.793Z,4.30
2018-12-05T06:35:14.242Z,4.40
2018-12-05T06:37:41.678Z,4.30
2018-12-05T06:40:09.148Z,4.30
2018-12-05T06:42:36.943Z,4.30
2018-12-05T06:45:04.630Z,4.30
2018-12-05T06:47:32.099Z,4.30
2018-12-05T06:49:59.520Z,4.30
2018-12-05T06:52:27.043Z,4.30
2018-12-05T06:54:54.484Z,4.30
2018-12-05T06:57:22.052Z,4.20
2018-12-05T06:59:49.484Z,4.20
2018-12-05T07:02:16.954Z,4.40
2018-12-05T07:07:18.239Z,4.50
2018-12-05T07:09:45.709Z,4.50
2018-12-05T07:12:13.248Z,4.50
2018-12-05T07:14:40.695Z,4.50
2018-12-05T07:17:08.125Z,4.40
2018-12-05T07:19:35.573Z,4.30
2018-12-05T07:22:03.048Z,4.40
2018-12-05T07:24:30.510Z,4.40
2018-12-05T07:26:57.975Z,4.30
2018-12-05T07:29:25.437Z,4.40
2018-12-05T07:31:52.874Z,4.40
2018-12-05T07:34:20.311Z,4.40
2018-12-05T07:36:47.759Z,4.40
2018-12-05T07:39:15.205Z,4.40
2018-12-05T07:41:42.711Z,4.50
2018-12-05T07:44:10.158Z,4.60
2018-12-05T07:46:37.634Z,4.60
2018-12-05T07:49:05.108Z,4.60
2018-12-05T07:51:32.563Z,4.70
2018-12-05T07:54:00.034Z,4.70
2018-12-05T07:56:27.521Z,4.70
2018-12-05T07:58:54.963Z,4.80
2018-12-05T08:01:22.402Z,4.80
2018-12-05T08:03:49.835Z,4.80
2018-12-05T08:06:17.352Z,4.80
2018-12-05T08:08:45.576Z,4.80
2018-12-05T08:11:13.038Z,4.90
2018-12-05T08:13:40.479Z,4.90
2018-12-05T08:16:08.013Z,5.00
2018-12-05T08:18:35.554Z,5.00
2018-12-05T08:21:03.014Z,5.00
2018-12-05T08:23:30.515Z,5.00
2018-12-05T08:25:57.988Z,5.00
2018-12-05T08:28:25.434Z,5.10
2018-12-05T08:30:52.868Z,5.10
2018-12-05T08:33:20.300Z,5.10
2018-12-05T08:35:48.527Z,5.00
2018-12-05T08:38:16.434Z,5.00
2018-12-05T08:40:43.875Z,5.00
2018-12-05T08:43:11.342Z,5.10
2018-12-05T08:45:38.776Z,5.20
2018-12-05T08:48:06.226Z,5.20
2018-12-05T08:50:33.664Z,5.20
2018-12-05T08:53:01.125Z,5.20
2018-12-05T08:55:28.648Z,5.30
2018-12-05T08:57:56.145Z,5.30
2018-12-05T09:00:23.618Z,5.40
2018-12-05T09:02:51.064Z,5.40
2018-12-05T09:05:18.558Z,5.50
2018-12-05T09:07:45.999Z,5.60
2018-12-05T09:10:13.532Z,5.60
2018-12-05T09:12:41.039Z,5.80
2018-12-05T09:15:08.509Z,5.90
2018-12-05T09:17:36.026Z,6.00
2018-12-05T09:20:04.304Z,6.10
2018-12-05T09:22:31.746Z,6.10
2018-12-05T09:24:59.201Z,6.20
2018-12-05T09:27:26.666Z,6.30
2018-12-05T09:29:54.236Z,6.40
2018-12-05T09:32:21.720Z,6.50
2018-12-05T09:34:49.141Z,6.60
2018-12-05T09:37:16.619Z,6.80
2018-12-05T09:39:44.074Z,6.90
2018-12-05T09:42:11.561Z,7.00
2018-12-05T09:44:38.994Z,7.20
2018-12-05T09:47:06.476Z,7.40
2018-12-05T09:49:33.936Z,7.40
2018-12-05T09:52:01.388Z,7.40
2018-12-05T09:54:28.808Z,7.30
2018-12-05T09:56:56.264Z,7.30
2018-12-05T09:59:23.692Z,7.20
2018-12-05T10:01:51.120Z,7.20
2018-12-05T10:04:18.587Z,7.30
2018-12-05T10:06:46.062Z,7.30
2018-12-05T10:09:13.522Z,7.30
2018-12-05T10:11:40.994Z,7.20
2018-12-05T10:14:08.468Z,7.20
2018-12-05T10:16:35.894Z,7.20
2018-12-05T10:19:03.491Z,7.40
2018-12-05T10:21:30.924Z,7.60
2018-12-05T10:23:58.378Z,7.70
2018-12-05T10:26:25.824Z,7.80
2018-12-05T10:28:53.261Z,7.90
2018-12-05T10:31:20.699Z,8.00
2018-12-05T10:33:48.170Z,8.10
2018-12-05T10:36:15.704Z,8.20
2018-12-05T10:38:43.162Z,8.30
2018-12-05T10:41:10.593Z,8.30
2018-12-05T10:43:38.060Z,8.30
2018-12-05T10:46:05.512Z,8.30
2018-12-05T10:48:32.983Z,8.40
2018-12-05T10:51:00.418Z,8.40
2018-12-05T10:53:27.868Z,8.30
2018-12-05T10:55:55.330Z,8.30
2018-12-05T10:58:22.800Z,8.40
2018-12-05T11:00:55.810Z,8.50
2018-12-05T11:03:29.028Z,8.40
2018-12-05T11:06:02.186Z,8.50
2018-12-05T11:08:35.245Z,8.70
2018-12-05T11:11:08.314Z,9.00
2018-12-05T11:13:41.331Z,9.10
2018-12-05T11:16:10.688Z,9.00
2018-12-05T11:18:43.760Z,9.10
2018-12-05T11:21:16.947Z,9.10
2018-12-05T11:23:50.170Z,9.10
2018-12-05T11:26:19.312Z,9.00
2018-12-05T11:28:46.756Z,8.80
2018-12-05T11:31:14.210Z,8.70
2018-12-05T11:33:41.779Z,8.70
2018-12-05T11:36:09.242Z,8.80
2018-12-05T11:38:36.712Z,8.80
2018-12-05T11:41:04.238Z,8.90
2018-12-05T11:43:31.700Z,8.90
2018-12-05T11:45:59.159Z,8.90
2018-12-05T11:48:26.613Z,9.00
2018-12-05T11:50:54.057Z,9.10
2018-12-05T11:53:21.593Z,9.20
2018-12-05T11:55:49.064Z,9.20
2018-12-05T11:58:16.537Z,9.50
2018-12-05T12:00:44.011Z,10.00
2018-12-05T12:03:11.522Z,11.10
2018-12-05T12:05:39.010Z,12.40
2018-12-05T12:08:06.999Z,13.10
2018-12-05T13:26:53.645Z,10.70
2018-12-05T13:29:21.108Z,10.70
2018-12-05T13:31:49.373Z,10.90
2018-12-05T13:34:16.812Z,10.90
2018-12-05T13:36:44.301Z,10.90
2018-12-05T13:39:11.791Z,10.90
2018-12-05T13:41:39.227Z,10.70
2018-12-05T13:44:06.739Z,10.70
2018-12-05T13:46:34.189Z,10.70
2018-12-05T13:49:01.630Z,10.90
2018-12-05T13:51:29.211Z,11.60
2018-12-05T13:53:56.687Z,12.10
2018-12-05T13:56:24.142Z,12.70
2018-12-05T13:58:51.577Z,12.70
2018-12-05T14:01:19.047Z,12.40
2018-12-05T14:03:46.598Z,12.10
2018-12-05T14:06:14.162Z,11.50
2018-12-05T14:08:41.614Z,11.10
2018-12-05T14:11:09.053Z,10.90
2018-12-05T14:13:36.489Z,10.50
2018-12-05T14:16:03.973Z,10.10
2018-12-05T14:18:31.425Z,9.90
2018-12-05T14:20:58.922Z,9.70
2018-12-05T14:23:26.445Z,9.60
2018-12-05T14:25:54.102Z,9.60
2018-12-05T14:28:21.557Z,9.60
2018-12-05T14:30:49.015Z,9.50
2018-12-05T14:33:16.475Z,9.40
2018-12-05T14:35:43.912Z,9.20
2018-12-05T14:38:11.579Z,9.10
2018-12-05T14:40:39.012Z,9.00
2018-12-05T14:43:06.468Z,8.90
2018-12-05T14:45:33.916Z,8.90
2018-12-05T14:48:01.388Z,8.80
2018-12-05T14:50:28.840Z,8.80
2018-12-05T14:52:56.349Z,8.70
2018-12-05T14:55:23.811Z,8.60
2018-12-05T14:57:51.252Z,8.60
2018-12-05T15:00:18.733Z,8.50
2018-12-05T15:02:46.243Z,8.50
2018-12-05T15:05:13.664Z,8.40
2018-12-05T15:07:41.123Z,8.30
2018-12-05T15:10:08.590Z,8.20
2018-12-05T15:12:36.045Z,8.10
2018-12-05T15:15:03.697Z,8.00
2018-12-05T15:17:31.144Z,8.00
2018-12-05T15:19:58.690Z,7.90
2018-12-05T15:22:26.126Z,7.80
2018-12-05T15:24:53.785Z,7.80
2018-12-05T15:27:21.204Z,7.70
2018-12-05T15:29:48.750Z,7.60
2018-12-05T15:32:16.208Z,7.50
2018-12-05T15:34:43.650Z,7.50
2018-12-05T15:37:11.110Z,7.50
2018-12-05T15:39:38.577Z,7.40
2018-12-05T15:42:06.054Z,7.30
2018-12-05T15:44:33.513Z,7.30
2018-12-05T15:47:00.953Z,7.30
2018-12-05T15:49:28.526Z,7.30
2018-12-05T15:51:55.956Z,7.30
2018-12-05T15:54:23.407Z,7.30
2018-12-05T15:56:50.884Z,7.30
2018-12-05T15:59:18.347Z,7.30
2018-12-05T16:01:45.852Z,7.30
2018-12-05T16:04:13.309Z,7.20
2018-12-05T16:06:40.764Z,7.20
2018-12-05T16:09:08.228Z,7.20
2018-12-05T16:11:35.729Z,7.10
2018-12-05T16:14:03.210Z,7.10
2018-12-05T16:16:30.692Z,7.10
2018-12-05T16:18:58.130Z,7.10
2018-12-05T16:21:25.594Z,7.10
2018-12-05T16:23:53.040Z,7.10
2018-12-05T16:26:20.525Z,7.20
2018-12-05T16:28:47.963Z,7.10
2018-12-05T16:31:15.432Z,7.10
2018-12-05T16:33:42.977Z,7.10
2018-12-05T16:36:11.234Z,7.10
2018-12-05T16:38:39.113Z,7.20
2018-12-05T16:41:06.579Z,7.20
2018-12-05T16:43:34.097Z,7.10
2018-12-05T16:46:01.533Z,7.20
2018-12-05T16:48:28.990Z,7.20
2018-12-05T16:50:56.517Z,7.10
2018-12-05T16:53:24.014Z,7.20
2018-12-05T16:55:51.459Z,7.10
2018-12-05T16:58:18.969Z,7.10
2018-12-05T17:00:46.474Z,7.10
2018-12-05T17:03:13.920Z,7.10
2018-12-05T17:05:41.466Z,7.00
2018-12-05T17:08:08.931Z,7.00
2018-12-05T17:10:36.397Z,7.00
2018-12-05T17:13:03.859Z,7.00
2018-12-05T17:15:31.335Z,7.00
2018-12-05T17:17:58.867Z,7.00
2018-12-05T17:20:26.886Z,7.00
2018-12-05T17:22:54.317Z,6.90
2018-12-05T17:25:21.753Z,6.90
2018-12-05T17:27:49.576Z,6.90
2018-12-05T17:30:17.028Z,6.90
2018-12-05T17:32:44.542Z,6.90
2018-12-05T17:35:12.018Z,6.90
2018-12-05T17:37:39.536Z,6.80
2018-12-05T17:40:07.015Z,6.90
2018-12-05T17:42:34.502Z,6.80
2018-12-05T17:45:01.976Z,6.80
2018-12-05T17:47:29.430Z,6.80
2018-12-05T17:49:56.879Z,6.70
2018-12-05T17:52:24.350Z,6.70
2018-12-05T17:54:51.789Z,6.70
2018-12-05T17:57:19.257Z,6.70
2018-12-05T17:59:46.726Z,6.70
2018-12-05T18:02:14.185Z,6.60
2018-12-05T18:04:41.662Z,6.50
2018-12-05T18:07:09.206Z,6.50
2018-12-05T18:09:36.690Z,6.40
2018-12-05T18:12:04.195Z,6.40
2018-12-05T18:14:31.655Z,6.30
2018-12-05T18:16:59.132Z,6.30
2018-12-05T18:19:26.572Z,6.30
2018-12-05T18:21:54.042Z,6.30
2018-12-05T18:24:22.096Z,6.30
2018-12-05T18:26:49.572Z,6.30
2018-12-05T18:29:17.027Z,6.20
2018-12-05T18:31:44.509Z,6.20
2018-12-05T18:34:11.959Z,6.10
2018-12-05T18:36:39.419Z,6.10
2018-12-05T18:39:07.116Z,6.00
2018-12-05T18:41:34.575Z,6.00
2018-12-05T18:44:02.038Z,6.00
2018-12-05T18:46:29.523Z,6.00
2018-12-05T18:48:56.956Z,5.90
2018-12-05T18:51:24.514Z,5.90
2018-12-05T18:53:51.965Z,5.90
2018-12-05T18:56:19.437Z,5.90
2018-12-05T18:58:46.866Z,5.90
2018-12-05T19:01:14.364Z,5.90
2018-12-05T19:03:41.862Z,5.80
2018-12-05T19:06:09.317Z,5.80
2018-12-05T19:08:36.838Z,5.80
2018-12-05T19:11:04.310Z,5.90
2018-12-05T19:13:33.682Z,5.90
2018-12-05T19:16:01.125Z,5.90
2018-12-05T19:18:28.606Z,5.90
2018-12-05T19:20:56.063Z,6.00
2018-12-05T19:23:23.488Z,6.10
2018-12-05T19:25:50.934Z,6.10
2018-12-05T19:28:18.402Z,6.10
2018-12-05T19:30:45.965Z,6.20
2018-12-05T19:33:13.416Z,6.20
2018-12-05T19:35:40.858Z,6.10
2018-12-05T19:38:08.309Z,6.10
2018-12-05T19:40:35.773Z,6.10
2018-12-05T19:43:03.231Z,6.10
2018-12-05T19:45:30.756Z,6.10
2018-12-05T19:47:58.250Z,6.10
2018-12-05T19:50:25.734Z,6.10
2018-12-05T19:52:53.297Z,6.10
2018-12-05T19:55:20.800Z,6.00
2018-12-05T19:57:48.252Z,6.00
2018-12-05T20:00:15.717Z,6.00
2018-12-05T20:02:43.161Z,6.10
2018-12-05T20:05:10.631Z,6.10
2018-12-05T20:07:38.092Z,6.10
2018-12-05T20:10:05.661Z,6.10
2018-12-05T20:12:33.146Z,6.20
2018-12-05T20:15:00.599Z,6.20
2018-12-05T20:17:28.137Z,6.30
2018-12-05T20:19:55.590Z,6.30
2018-12-05T20:22:23.075Z,6.30
2018-12-05T20:24:50.515Z,6.30
2018-12-05T20:27:18.006Z,6.30
2018-12-05T20:29:45.452Z,6.30
2018-12-05T20:32:12.926Z,6.30
2018-12-05T20:34:40.380Z,6.30
2018-12-05T20:37:07.911Z,6.30
2018-12-05T20:39:35.354Z,6.30
2018-12-05T20:42:02.950Z,6.40
2018-12-05T20:44:30.718Z,6.40
2018-12-05T20:46:58.186Z,6.30
2018-12-05T20:49:25.647Z,6.30
2018-12-05T20:51:53.092Z,6.30
2018-12-05T20:54:20.666Z,6.30
2018-12-05T20:56:48.144Z,6.30
2018-12-05T20:59:15.681Z,6.30
2018-12-05T21:01:43.156Z,6.20
2018-12-05T21:04:10.594Z,6.10
2018-12-05T21:06:38.059Z,6.10
2018-12-05T21:09:07.756Z,6.00
2018-12-05T21:11:35.203Z,6.10
2018-12-05T21:14:02.784Z,6.10
2018-12-05T21:16:30.242Z,6.10
2018-12-05T21:18:57.703Z,6.00
2018-12-05T21:21:25.149Z,6.00
2018-12-05T21:23:52.588Z,5.90
2018-12-05T21:26:20.066Z,5.90
2018-12-05T21:28:47.586Z,5.90
2018-12-05T21:31:15.209Z,6.00
2018-12-05T21:33:42.670Z,5.90
2018-12-05T21:36:10.205Z,5.90
2018-12-05T21:38:37.963Z,5.90
2018-12-05T21:41:05.450Z,5.80
2018-12-05T21:43:32.905Z,5.80
2018-12-05T21:46:00.366Z,5.70
2018-12-05T21:48:59.018Z,5.70
2018-12-05T21:51:26.470Z,5.70
2018-12-05T21:53:53.998Z,5.80
2018-12-05T21:56:21.442Z,5.90
2018-12-05T21:58:48.881Z,5.90
2018-12-05T22:01:16.312Z,5.80
2018-12-05T22:03:43.741Z,5.70
2018-12-05T22:06:11.254Z,5.70
2018-12-05T22:08:38.678Z,5.70
2018-12-05T22:11:06.210Z,5.70
2018-12-05T22:13:33.668Z,5.60
2018-12-05T22:16:01.114Z,5.60
2018-12-05T22:18:28.546Z,5.50
2018-12-05T22:20:56.002Z,5.60
2018-12-05T22:23:23.447Z,5.60
2018-12-05T22:25:50.901Z,5.60
2018-12-05T22:28:18.343Z,5.60
2018-12-05T22:30:45.790Z,5.60
2018-12-05T22:33:13.213Z,5.70
2018-12-05T22:35:40.666Z,5.70
2018-12-05T22:38:08.101Z,5.80
2018-12-05T22:40:35.512Z,5.80
2018-12-05T22:43:02.956Z,5.90
2018-12-05T22:45:30.377Z,5.90
2018-12-05T22:47:57.885Z,5.90
2018-12-05T22:50:25.318Z,6.00
2018-12-05T22:52:52.749Z,6.00
2018-12-05T22:55:20.207Z,6.10
2018-12-05T22:57:47.648Z,6.20
2018-12-05T23:00:18.430Z,6.30
2018-12-05T23:02:45.899Z,6.30
2018-12-05T23:05:13.443Z,6.30
2018-12-05T23:07:40.925Z,6.30
2018-12-05T23:10:08.398Z,6.30
2018-12-05T23:12:35.947Z,6.30
2018-12-05T23:15:03.919Z,6.30
2018-12-05T23:17:31.390Z,6.40
2018-12-05T23:19:58.867Z,6.40
2018-12-05T23:22:26.313Z,6.40
2018-12-05T23:24:53.747Z,6.30
2018-12-05T23:27:21.188Z,6.30
2018-12-05T23:29:48.706Z,6.30
2018-12-05T23:32:16.479Z,6.40
2018-12-05T23:34:44.035Z,6.30
2018-12-05T23:37:11.440Z,6.30
2018-12-05T23:39:38.878Z,6.20
2018-12-05T23:42:06.397Z,6.20
2018-12-05T23:44:33.816Z,6.30
2018-12-05T23:47:01.248Z,6.20
2018-12-05T23:49:29.236Z,6.30
2018-12-05T23:51:56.652Z,6.30
2018-12-05T23:54:24.102Z,6.20
2018-12-05T23:56:51.597Z,6.20
2018-12-05T23:59:19.060Z,6.10
